Pagina principale
METAR-TAF:

METAR-TAF

Aeroporti :

Aeroporto del Lussemburgo

Lussemburgo, Lussemburgo

latitudine: 49-37N, longitudine: 006-13E, altezza: 376 m

Osservazione

Il bollettino è stato emesso 16 minuti fa, alle 04:20 UTC
Vento 10 kt da nord-est
Temperature -2°C
Umidità 59%
Pressione 1027 hPa
Visibilità 10 km o più
nessuna nube inferiore a 1500 m e nessun cumulonembo

METAR: ELLX 300420Z 05010KT CAVOK M02/M09 Q1027 NOSIG

Ora: 06:36 (04:36 UTC)

Previsione

Il bollettino è stato emesso 5 ore e 36 minuti fa, alle 23:00 UTC
Previsione valida dal 30 alle 00 UTC al 31 alle 06 UTC
Vento 15 kt da nord-est con raffiche fino a 25 kt
Visibilità 10 km o più
Poco nuvoloso ad un'altezza di 2000 ft
Nuvoloso ad un'altezza di 3000 ft
Evoluzione graduale
dal 30 alle 03 UTC al 30 alle 06 UTC
Vento 12 kt da nord-est

TAF: ELLX 292300Z 3000/3106 04015G25KT 9999 FEW020 BKN030 BECMG 3003/3006 04012KT

Osservazioni e previsioni meteorologiche di più di 4000 aeroporti (messaggi METAR e TAF).

Le stazioni disponibili sono rappresentate dai dischi gialli e rossi sulla carta.

Puntare il mouse per vedere il nome della stazione.

Clicca sopra per visualizzare le osservazioni e previsioni meteorologiche.

Per cambiare la mappa : fare clic sui pulsanti verdi con una croce nera per ingrandire, il pulsante verde con un trattino per diminuire, o sulla freccia verde per le mappe adiacenti.


METAR-TAF: